sensor_id;sensor_type;location;lat;lon;timestamp;P1;durP1;ratioP1;P2;durP2;ratioP2
3789;SDS011;1910;49.042;9.028;2022-08-21T00:00:48;4.33;;;2.93;;
3789;SDS011;1910;49.042;9.028;2022-08-21T00:03:14;7.83;;;4.13;;
3789;SDS011;1910;49.042;9.028;2022-08-21T00:05:41;3.00;;;2.60;;
3789;SDS011;1910;49.042;9.028;2022-08-21T00:08:12;3.63;;;2.40;;
3789;SDS011;1910;49.042;9.028;2022-08-21T00:10:39;6.10;;;3.47;;
3789;SDS011;1910;49.042;9.028;2022-08-21T00:13:06;4.97;;;3.10;;
3789;SDS011;1910;49.042;9.028;2022-08-21T00:15:32;5.73;;;2.93;;
3789;SDS011;1910;49.042;9.028;2022-08-21T00:18:00;7.33;;;3.50;;
3789;SDS011;1910;49.042;9.028;2022-08-21T00:20:26;4.13;;;3.47;;
3789;SDS011;1910;49.042;9.028;2022-08-21T00:22:52;4.30;;;3.07;;
3789;SDS011;1910;49.042;9.028;2022-08-21T00:25:18;4.70;;;3.57;;
3789;SDS011;1910;49.042;9.028;2022-08-21T00:27:44;9.30;;;3.60;;
3789;SDS011;1910;49.042;9.028;2022-08-21T00:30:12;4.30;;;3.43;;
3789;SDS011;1910;49.042;9.028;2022-08-21T00:32:39;5.17;;;3.43;;
3789;SDS011;1910;49.042;9.028;2022-08-21T00:35:06;5.13;;;3.07;;
3789;SDS011;1910;49.042;9.028;2022-08-21T00:37:33;6.93;;;3.43;;
3789;SDS011;1910;49.042;9.028;2022-08-21T00:39:59;4.63;;;2.83;;
3789;SDS011;1910;49.042;9.028;2022-08-21T00:42:25;15.90;;;4.03;;
3789;SDS011;1910;49.042;9.028;2022-08-21T00:44:51;4.27;;;3.60;;
3789;SDS011;1910;49.042;9.028;2022-08-21T00:47:17;5.40;;;3.70;;
3789;SDS011;1910;49.042;9.028;2022-08-21T00:49:44;7.53;;;4.00;;
3789;SDS011;1910;49.042;9.028;2022-08-21T00:52:10;5.17;;;3.40;;
3789;SDS011;1910;49.042;9.028;2022-08-21T00:54:43;7.77;;;3.90;;
3789;SDS011;1910;49.042;9.028;2022-08-21T00:57:14;6.13;;;3.90;;
3789;SDS011;1910;49.042;9.028;2022-08-21T00:59:43;5.00;;;3.70;;
3789;SDS011;1910;49.042;9.028;2022-08-21T01:02:12;9.13;;;4.10;;
3789;SDS011;1910;49.042;9.028;2022-08-21T01:04:38;5.57;;;4.10;;
3789;SDS011;1910;49.042;9.028;2022-08-21T01:07:04;7.63;;;3.60;;
3789;SDS011;1910;49.042;9.028;2022-08-21T01:09:31;4.80;;;4.07;;
3789;SDS011;1910;49.042;9.028;2022-08-21T01:11:57;8.37;;;4.73;;
3789;SDS011;1910;49.042;9.028;2022-08-21T01:14:23;6.60;;;4.30;;
3789;SDS011;1910;49.042;9.028;2022-08-21T01:16:50;5.30;;;3.57;;
3789;SDS011;1910;49.042;9.028;2022-08-21T01:19:18;5.50;;;3.57;;
3789;SDS011;1910;49.042;9.028;2022-08-21T01:21:45;3.70;;;3.00;;
3789;SDS011;1910;49.042;9.028;2022-08-21T01:24:11;7.93;;;4.53;;
3789;SDS011;1910;49.042;9.028;2022-08-21T01:26:37;5.57;;;4.17;;
3789;SDS011;1910;49.042;9.028;2022-08-21T01:29:09;7.00;;;4.47;;
3789;SDS011;1910;49.042;9.028;2022-08-21T01:31:55;4.67;;;4.27;;
3789;SDS011;1910;49.042;9.028;2022-08-21T01:34:21;6.07;;;3.90;;
3789;SDS011;1910;49.042;9.028;2022-08-21T01:36:47;9.57;;;4.40;;
3789;SDS011;1910;49.042;9.028;2022-08-21T01:39:13;9.63;;;4.20;;
3789;SDS011;1910;49.042;9.028;2022-08-21T01:41:40;8.97;;;4.73;;
3789;SDS011;1910;49.042;9.028;2022-08-21T01:44:05;6.33;;;4.27;;
3789;SDS011;1910;49.042;9.028;2022-08-21T01:46:31;5.30;;;4.37;;
3789;SDS011;1910;49.042;9.028;2022-08-21T01:48:57;5.73;;;4.73;;
3789;SDS011;1910;49.042;9.028;2022-08-21T01:51:23;6.07;;;4.70;;
3789;SDS011;1910;49.042;9.028;2022-08-21T01:53:49;10.57;;;4.67;;
3789;SDS011;1910;49.042;9.028;2022-08-21T01:56:15;6.30;;;4.27;;
3789;SDS011;1910;49.042;9.028;2022-08-21T01:58:43;6.10;;;4.57;;
3789;SDS011;1910;49.042;9.028;2022-08-21T02:01:10;6.90;;;4.03;;
3789;SDS011;1910;49.042;9.028;2022-08-21T02:03:35;5.80;;;4.50;;
3789;SDS011;1910;49.042;9.028;2022-08-21T02:06:05;7.23;;;4.30;;
3789;SDS011;1910;49.042;9.028;2022-08-21T02:08:31;6.20;;;4.40;;
3789;SDS011;1910;49.042;9.028;2022-08-21T02:10:58;6.67;;;4.27;;
3789;SDS011;1910;49.042;9.028;2022-08-21T02:13:24;4.83;;;4.20;;
3789;SDS011;1910;49.042;9.028;2022-08-21T02:15:51;6.17;;;4.30;;
3789;SDS011;1910;49.042;9.028;2022-08-21T02:18:16;6.70;;;4.20;;
3789;SDS011;1910;49.042;9.028;2022-08-21T02:20:45;7.20;;;4.30;;
3789;SDS011;1910;49.042;9.028;2022-08-21T02:23:12;5.93;;;4.60;;
3789;SDS011;1910;49.042;9.028;2022-08-21T02:25:38;6.13;;;5.10;;
3789;SDS011;1910;49.042;9.028;2022-08-21T02:28:08;5.87;;;4.33;;
3789;SDS011;1910;49.042;9.028;2022-08-21T02:30:38;8.60;;;4.63;;
3789;SDS011;1910;49.042;9.028;2022-08-21T02:33:06;5.60;;;4.80;;
3789;SDS011;1910;49.042;9.028;2022-08-21T02:35:34;4.93;;;4.43;;
3789;SDS011;1910;49.042;9.028;2022-08-21T02:38:02;9.73;;;4.90;;
3789;SDS011;1910;49.042;9.028;2022-08-21T02:40:31;6.80;;;4.80;;
3789;SDS011;1910;49.042;9.028;2022-08-21T02:42:59;8.10;;;4.60;;
3789;SDS011;1910;49.042;9.028;2022-08-21T02:45:26;8.03;;;5.10;;
3789;SDS011;1910;49.042;9.028;2022-08-21T02:47:54;6.50;;;4.67;;
3789;SDS011;1910;49.042;9.028;2022-08-21T02:50:24;7.47;;;5.20;;
3789;SDS011;1910;49.042;9.028;2022-08-21T02:52:53;10.47;;;5.80;;
3789;SDS011;1910;49.042;9.028;2022-08-21T02:55:19;6.17;;;4.90;;
3789;SDS011;1910;49.042;9.028;2022-08-21T02:57:47;9.80;;;5.67;;
3789;SDS011;1910;49.042;9.028;2022-08-21T03:00:13;5.80;;;4.73;;
3789;SDS011;1910;49.042;9.028;2022-08-21T03:02:39;8.50;;;5.20;;
3789;SDS011;1910;49.042;9.028;2022-08-21T03:05:06;6.37;;;4.30;;
3789;SDS011;1910;49.042;9.028;2022-08-21T03:07:34;8.70;;;4.93;;
3789;SDS011;1910;49.042;9.028;2022-08-21T03:10:00;6.40;;;5.20;;
3789;SDS011;1910;49.042;9.028;2022-08-21T03:12:26;9.80;;;6.07;;
3789;SDS011;1910;49.042;9.028;2022-08-21T03:14:52;7.83;;;6.00;;
3789;SDS011;1910;49.042;9.028;2022-08-21T03:17:17;9.93;;;5.70;;
3789;SDS011;1910;49.042;9.028;2022-08-21T03:19:43;7.27;;;5.10;;
3789;SDS011;1910;49.042;9.028;2022-08-21T03:22:08;7.40;;;5.40;;
3789;SDS011;1910;49.042;9.028;2022-08-21T03:24:34;12.33;;;6.20;;
3789;SDS011;1910;49.042;9.028;2022-08-21T03:26:59;10.47;;;6.37;;
3789;SDS011;1910;49.042;9.028;2022-08-21T03:29:25;7.93;;;6.03;;
3789;SDS011;1910;49.042;9.028;2022-08-21T03:31:50;12.63;;;6.10;;
3789;SDS011;1910;49.042;9.028;2022-08-21T03:34:19;12.20;;;6.80;;
3789;SDS011;1910;49.042;9.028;2022-08-21T03:36:45;7.97;;;5.40;;
3789;SDS011;1910;49.042;9.028;2022-08-21T03:39:10;11.90;;;6.57;;
3789;SDS011;1910;49.042;9.028;2022-08-21T03:41:36;9.90;;;5.90;;
3789;SDS011;1910;49.042;9.028;2022-08-21T03:44:02;12.60;;;7.20;;
3789;SDS011;1910;49.042;9.028;2022-08-21T03:46:27;11.83;;;6.23;;
3789;SDS011;1910;49.042;9.028;2022-08-21T03:48:53;8.87;;;5.80;;
3789;SDS011;1910;49.042;9.028;2022-08-21T03:51:18;8.93;;;5.90;;
3789;SDS011;1910;49.042;9.028;2022-08-21T03:53:44;8.60;;;6.10;;
3789;SDS011;1910;49.042;9.028;2022-08-21T03:56:10;12.03;;;6.23;;
3789;SDS011;1910;49.042;9.028;2022-08-21T03:58:36;9.03;;;6.20;;
3789;SDS011;1910;49.042;9.028;2022-08-21T04:01:03;7.40;;;6.23;;
3789;SDS011;1910;49.042;9.028;2022-08-21T04:03:31;8.87;;;5.70;;
3789;SDS011;1910;49.042;9.028;2022-08-21T04:05:57;10.67;;;5.73;;
3789;SDS011;1910;49.042;9.028;2022-08-21T04:08:22;12.50;;;6.47;;
3789;SDS011;1910;49.042;9.028;2022-08-21T04:11:56;8.80;;;6.23;;
3789;SDS011;1910;49.042;9.028;2022-08-21T04:14:23;10.85;;;7.22;;
3789;SDS011;1910;49.042;9.028;2022-08-21T04:16:48;10.00;;;7.80;;
3789;SDS011;1910;49.042;9.028;2022-08-21T04:19:14;14.20;;;6.47;;
3789;SDS011;1910;49.042;9.028;2022-08-21T04:21:40;17.80;;;6.43;;
3789;SDS011;1910;49.042;9.028;2022-08-21T04:24:07;11.23;;;6.57;;
3789;SDS011;1910;49.042;9.028;2022-08-21T04:26:34;10.37;;;6.10;;
3789;SDS011;1910;49.042;9.028;2022-08-21T04:29:01;7.60;;;5.23;;
3789;SDS011;1910;49.042;9.028;2022-08-21T04:31:28;12.48;;;6.43;;
3789;SDS011;1910;49.042;9.028;2022-08-21T04:33:54;10.57;;;7.30;;
3789;SDS011;1910;49.042;9.028;2022-08-21T04:36:21;11.23;;;6.60;;
3789;SDS011;1910;49.042;9.028;2022-08-21T04:38:47;11.05;;;6.65;;
3789;SDS011;1910;49.042;9.028;2022-08-21T04:41:13;9.97;;;6.30;;
3789;SDS011;1910;49.042;9.028;2022-08-21T04:43:39;10.23;;;7.90;;
3789;SDS011;1910;49.042;9.028;2022-08-21T04:46:04;11.90;;;6.77;;
3789;SDS011;1910;49.042;9.028;2022-08-21T04:48:30;16.10;;;8.20;;
3789;SDS011;1910;49.042;9.028;2022-08-21T04:51:08;10.70;;;6.00;;
3789;SDS011;1910;49.042;9.028;2022-08-21T04:53:41;9.33;;;6.00;;
3789;SDS011;1910;49.042;9.028;2022-08-21T04:56:21;6.47;;;5.23;;
3789;SDS011;1910;49.042;9.028;2022-08-21T04:58:47;8.80;;;5.63;;
3789;SDS011;1910;49.042;9.028;2022-08-21T05:01:17;15.10;;;6.03;;
3789;SDS011;1910;49.042;9.028;2022-08-21T05:03:47;7.83;;;5.10;;
3789;SDS011;1910;49.042;9.028;2022-08-21T05:06:14;8.67;;;6.33;;
3789;SDS011;1910;49.042;9.028;2022-08-21T05:08:41;8.13;;;5.53;;
3789;SDS011;1910;49.042;9.028;2022-08-21T05:11:10;8.97;;;5.03;;
3789;SDS011;1910;49.042;9.028;2022-08-21T05:13:36;9.23;;;5.13;;
3789;SDS011;1910;49.042;9.028;2022-08-21T05:16:02;6.20;;;5.10;;
3789;SDS011;1910;49.042;9.028;2022-08-21T05:18:28;7.37;;;4.40;;
3789;SDS011;1910;49.042;9.028;2022-08-21T05:20:53;7.10;;;4.77;;
3789;SDS011;1910;49.042;9.028;2022-08-21T05:23:19;6.70;;;5.03;;
3789;SDS011;1910;49.042;9.028;2022-08-21T05:25:45;5.63;;;5.13;;
3789;SDS011;1910;49.042;9.028;2022-08-21T05:28:10;10.03;;;4.40;;
3789;SDS011;1910;49.042;9.028;2022-08-21T05:30:37;7.97;;;4.40;;
3789;SDS011;1910;49.042;9.028;2022-08-21T05:33:03;7.60;;;4.67;;
3789;SDS011;1910;49.042;9.028;2022-08-21T05:35:30;5.47;;;4.70;;
3789;SDS011;1910;49.042;9.028;2022-08-21T05:37:57;5.53;;;4.80;;
3789;SDS011;1910;49.042;9.028;2022-08-21T05:40:23;5.67;;;4.93;;
3789;SDS011;1910;49.042;9.028;2022-08-21T05:42:50;6.80;;;4.33;;
3789;SDS011;1910;49.042;9.028;2022-08-21T05:45:16;7.10;;;4.70;;
3789;SDS011;1910;49.042;9.028;2022-08-21T05:47:41;9.50;;;4.70;;
3789;SDS011;1910;49.042;9.028;2022-08-21T05:50:07;6.30;;;4.40;;
3789;SDS011;1910;49.042;9.028;2022-08-21T05:52:33;8.33;;;4.80;;
3789;SDS011;1910;49.042;9.028;2022-08-21T05:54:59;6.60;;;4.70;;
3789;SDS011;1910;49.042;9.028;2022-08-21T05:57:24;6.63;;;4.70;;
3789;SDS011;1910;49.042;9.028;2022-08-21T05:59:50;5.70;;;5.10;;
3789;SDS011;1910;49.042;9.028;2022-08-21T06:02:17;8.17;;;4.83;;
3789;SDS011;1910;49.042;9.028;2022-08-21T06:04:43;15.10;;;5.63;;
3789;SDS011;1910;49.042;9.028;2022-08-21T06:07:09;7.10;;;5.77;;
3789;SDS011;1910;49.042;9.028;2022-08-21T06:09:35;7.43;;;5.13;;
3789;SDS011;1910;49.042;9.028;2022-08-21T06:12:06;6.53;;;5.80;;
3789;SDS011;1910;49.042;9.028;2022-08-21T06:14:33;10.83;;;5.60;;
3789;SDS011;1910;49.042;9.028;2022-08-21T06:17:04;7.93;;;5.10;;
3789;SDS011;1910;49.042;9.028;2022-08-21T06:19:30;6.60;;;6.00;;
3789;SDS011;1910;49.042;9.028;2022-08-21T06:21:56;7.33;;;6.10;;
3789;SDS011;1910;49.042;9.028;2022-08-21T06:24:21;6.50;;;5.80;;
3789;SDS011;1910;49.042;9.028;2022-08-21T06:26:47;7.83;;;5.67;;
3789;SDS011;1910;49.042;9.028;2022-08-21T06:29:13;7.13;;;6.00;;
3789;SDS011;1910;49.042;9.028;2022-08-21T06:31:42;6.57;;;5.87;;
3789;SDS011;1910;49.042;9.028;2022-08-21T06:34:07;6.70;;;6.10;;
3789;SDS011;1910;49.042;9.028;2022-08-21T06:36:33;7.00;;;6.00;;
3789;SDS011;1910;49.042;9.028;2022-08-21T06:38:58;6.30;;;5.70;;
3789;SDS011;1910;49.042;9.028;2022-08-21T06:41:25;9.07;;;5.43;;
3789;SDS011;1910;49.042;9.028;2022-08-21T06:43:51;6.90;;;6.20;;
3789;SDS011;1910;49.042;9.028;2022-08-21T06:46:17;9.33;;;5.70;;
3789;SDS011;1910;49.042;9.028;2022-08-21T06:48:43;7.03;;;6.37;;
3789;SDS011;1910;49.042;9.028;2022-08-21T06:51:08;7.00;;;6.37;;
3789;SDS011;1910;49.042;9.028;2022-08-21T06:53:34;6.93;;;6.43;;
3789;SDS011;1910;49.042;9.028;2022-08-21T06:55:59;6.73;;;6.00;;
3789;SDS011;1910;49.042;9.028;2022-08-21T06:58:25;7.73;;;6.50;;
3789;SDS011;1910;49.042;9.028;2022-08-21T07:00:50;11.03;;;6.30;;
3789;SDS011;1910;49.042;9.028;2022-08-21T07:03:17;6.87;;;6.10;;
3789;SDS011;1910;49.042;9.028;2022-08-21T07:05:48;7.37;;;6.70;;
3789;SDS011;1910;49.042;9.028;2022-08-21T07:08:14;6.97;;;6.27;;
3789;SDS011;1910;49.042;9.028;2022-08-21T07:10:41;7.23;;;6.53;;
3789;SDS011;1910;49.042;9.028;2022-08-21T07:13:07;7.73;;;6.67;;
3789;SDS011;1910;49.042;9.028;2022-08-21T07:15:33;6.63;;;6.23;;
3789;SDS011;1910;49.042;9.028;2022-08-21T07:17:59;11.93;;;5.77;;
3789;SDS011;1910;49.042;9.028;2022-08-21T07:20:25;9.17;;;6.13;;
3789;SDS011;1910;49.042;9.028;2022-08-21T07:22:52;8.60;;;6.27;;
3789;SDS011;1910;49.042;9.028;2022-08-21T07:25:17;7.47;;;6.77;;
3789;SDS011;1910;49.042;9.028;2022-08-21T07:27:43;9.67;;;6.83;;
3789;SDS011;1910;49.042;9.028;2022-08-21T07:30:09;7.80;;;6.60;;
3789;SDS011;1910;49.042;9.028;2022-08-21T07:32:35;12.50;;;7.20;;
3789;SDS011;1910;49.042;9.028;2022-08-21T07:35:01;7.10;;;6.37;;
3789;SDS011;1910;49.042;9.028;2022-08-21T07:37:27;7.90;;;7.10;;
3789;SDS011;1910;49.042;9.028;2022-08-21T07:39:52;8.20;;;7.13;;
3789;SDS011;1910;49.042;9.028;2022-08-21T07:42:18;8.73;;;6.57;;
3789;SDS011;1910;49.042;9.028;2022-08-21T07:44:44;7.17;;;6.60;;
3789;SDS011;1910;49.042;9.028;2022-08-21T07:47:10;9.47;;;7.40;;
3789;SDS011;1910;49.042;9.028;2022-08-21T07:49:35;7.73;;;7.03;;
3789;SDS011;1910;49.042;9.028;2022-08-21T07:52:01;6.70;;;6.10;;
3789;SDS011;1910;49.042;9.028;2022-08-21T07:54:27;7.80;;;7.03;;
3789;SDS011;1910;49.042;9.028;2022-08-21T07:56:52;8.40;;;6.63;;
3789;SDS011;1910;49.042;9.028;2022-08-21T07:59:18;7.13;;;6.53;;
3789;SDS011;1910;49.042;9.028;2022-08-21T08:01:44;10.40;;;6.97;;
3789;SDS011;1910;49.042;9.028;2022-08-21T08:04:09;8.40;;;7.23;;
3789;SDS011;1910;49.042;9.028;2022-08-21T08:06:35;8.03;;;7.23;;
3789;SDS011;1910;49.042;9.028;2022-08-21T08:09:01;13.90;;;7.20;;
3789;SDS011;1910;49.042;9.028;2022-08-21T08:11:28;8.10;;;7.40;;
3789;SDS011;1910;49.042;9.028;2022-08-21T08:13:55;8.00;;;7.20;;
3789;SDS011;1910;49.042;9.028;2022-08-21T08:16:22;9.97;;;7.40;;
3789;SDS011;1910;49.042;9.028;2022-08-21T08:18:48;11.40;;;7.00;;
3789;SDS011;1910;49.042;9.028;2022-08-21T08:21:14;8.43;;;7.50;;
3789;SDS011;1910;49.042;9.028;2022-08-21T08:23:40;8.67;;;7.77;;
3789;SDS011;1910;49.042;9.028;2022-08-21T08:26:05;10.20;;;7.33;;
3789;SDS011;1910;49.042;9.028;2022-08-21T08:28:31;8.70;;;7.37;;
3789;SDS011;1910;49.042;9.028;2022-08-21T08:30:58;8.43;;;6.73;;
3789;SDS011;1910;49.042;9.028;2022-08-21T08:33:25;10.00;;;8.63;;
3789;SDS011;1910;49.042;9.028;2022-08-21T08:35:52;8.37;;;7.40;;
3789;SDS011;1910;49.042;9.028;2022-08-21T08:38:18;8.27;;;7.57;;
3789;SDS011;1910;49.042;9.028;2022-08-21T08:40:47;7.73;;;7.03;;
3789;SDS011;1910;49.042;9.028;2022-08-21T08:43:17;9.37;;;7.87;;
3789;SDS011;1910;49.042;9.028;2022-08-21T08:45:46;8.57;;;7.70;;
3789;SDS011;1910;49.042;9.028;2022-08-21T08:48:18;9.07;;;7.87;;
3789;SDS011;1910;49.042;9.028;2022-08-21T08:51:21;10.37;;;8.50;;
3789;SDS011;1910;49.042;9.028;2022-08-21T08:53:59;8.13;;;7.40;;
3789;SDS011;1910;49.042;9.028;2022-08-21T08:56:29;7.97;;;7.27;;
3789;SDS011;1910;49.042;9.028;2022-08-21T08:58:59;9.00;;;7.80;;
3789;SDS011;1910;49.042;9.028;2022-08-21T09:01:27;9.40;;;7.93;;
3789;SDS011;1910;49.042;9.028;2022-08-21T09:03:53;9.20;;;8.40;;
3789;SDS011;1910;49.042;9.028;2022-08-21T09:06:26;8.30;;;7.20;;
3789;SDS011;1910;49.042;9.028;2022-08-21T09:14:43;8.40;;;7.70;;
3789;SDS011;1910;49.042;9.028;2022-08-21T09:20:17;11.87;;;7.37;;
3789;SDS011;1910;49.042;9.028;2022-08-21T09:28:25;8.70;;;7.70;;
3789;SDS011;1910;49.042;9.028;2022-08-21T09:30:51;10.13;;;7.43;;
3789;SDS011;1910;49.042;9.028;2022-08-21T09:33:20;8.90;;;6.90;;
3789;SDS011;1910;49.042;9.028;2022-08-21T09:35:53;12.30;;;6.70;;
3789;SDS011;1910;49.042;9.028;2022-08-21T09:38:32;11.80;;;7.87;;
3789;SDS011;1910;49.042;9.028;2022-08-21T09:41:02;9.30;;;7.70;;
3789;SDS011;1910;49.042;9.028;2022-08-21T09:43:29;12.40;;;7.00;;
3789;SDS011;1910;49.042;9.028;2022-08-21T09:48:45;8.77;;;6.90;;
3789;SDS011;1910;49.042;9.028;2022-08-21T09:51:15;7.90;;;6.80;;
3789;SDS011;1910;49.042;9.028;2022-08-21T09:53:49;9.53;;;6.97;;
3789;SDS011;1910;49.042;9.028;2022-08-21T09:56:26;10.53;;;7.43;;
3789;SDS011;1910;49.042;9.028;2022-08-21T09:59:15;9.97;;;8.17;;
3789;SDS011;1910;49.042;9.028;2022-08-21T10:01:44;8.87;;;8.03;;
3789;SDS011;1910;49.042;9.028;2022-08-21T10:04:12;10.37;;;8.20;;
3789;SDS011;1910;49.042;9.028;2022-08-21T10:06:37;10.40;;;7.77;;
3789;SDS011;1910;49.042;9.028;2022-08-21T10:09:12;7.80;;;7.10;;
3789;SDS011;1910;49.042;9.028;2022-08-21T10:11:41;8.60;;;7.73;;
3789;SDS011;1910;49.042;9.028;2022-08-21T10:17:22;8.00;;;7.20;;
3789;SDS011;1910;49.042;9.028;2022-08-21T10:20:08;7.80;;;6.97;;
3789;SDS011;1910;49.042;9.028;2022-08-21T10:25:44;7.87;;;7.13;;
3789;SDS011;1910;49.042;9.028;2022-08-21T10:28:31;8.40;;;7.10;;
3789;SDS011;1910;49.042;9.028;2022-08-21T10:36:25;6.70;;;6.10;;
3789;SDS011;1910;49.042;9.028;2022-08-21T10:41:52;9.43;;;5.90;;
3789;SDS011;1910;49.042;9.028;2022-08-21T10:49:51;8.47;;;5.70;;
3789;SDS011;1910;49.042;9.028;2022-08-21T10:52:24;10.30;;;6.10;;
3789;SDS011;1910;49.042;9.028;2022-08-21T10:57:42;7.83;;;5.57;;
3789;SDS011;1910;49.042;9.028;2022-08-21T11:00:11;11.80;;;5.10;;
3789;SDS011;1910;49.042;9.028;2022-08-21T11:02:51;10.00;;;4.90;;
3789;SDS011;1910;49.042;9.028;2022-08-21T11:05:20;11.40;;;5.70;;
3789;SDS011;1910;49.042;9.028;2022-08-21T11:11:01;6.30;;;5.30;;
3789;SDS011;1910;49.042;9.028;2022-08-21T11:13:47;7.33;;;4.93;;
3789;SDS011;1910;49.042;9.028;2022-08-21T11:16:26;8.23;;;5.03;;
3789;SDS011;1910;49.042;9.028;2022-08-21T11:19:10;5.23;;;4.50;;
3789;SDS011;1910;49.042;9.028;2022-08-21T11:21:42;11.00;;;5.90;;
3789;SDS011;1910;49.042;9.028;2022-08-21T11:26:52;8.80;;;5.37;;
3789;SDS011;1910;49.042;9.028;2022-08-21T11:29:36;6.63;;;4.80;;
3789;SDS011;1910;49.042;9.028;2022-08-21T11:40:00;8.07;;;5.10;;
3789;SDS011;1910;49.042;9.028;2022-08-21T11:45:41;9.80;;;5.60;;
3789;SDS011;1910;49.042;9.028;2022-08-21T11:51:01;8.00;;;5.17;;
3789;SDS011;1910;49.042;9.028;2022-08-21T11:53:37;7.83;;;5.20;;
3789;SDS011;1910;49.042;9.028;2022-08-21T11:56:08;6.40;;;5.13;;
3789;SDS011;1910;49.042;9.028;2022-08-21T11:58:55;6.50;;;4.90;;
3789;SDS011;1910;49.042;9.028;2022-08-21T12:01:29;7.70;;;6.00;;
3789;SDS011;1910;49.042;9.028;2022-08-21T12:03:59;6.40;;;5.27;;
3789;SDS011;1910;49.042;9.028;2022-08-21T12:06:30;10.37;;;5.40;;
3789;SDS011;1910;49.042;9.028;2022-08-21T12:09:02;13.27;;;5.83;;
3789;SDS011;1910;49.042;9.028;2022-08-21T12:11:30;8.50;;;5.77;;
3789;SDS011;1910;49.042;9.028;2022-08-21T12:13:58;9.10;;;6.20;;
3789;SDS011;1910;49.042;9.028;2022-08-21T12:16:37;6.53;;;5.63;;
3789;SDS011;1910;49.042;9.028;2022-08-21T12:21:47;8.70;;;5.57;;
3789;SDS011;1910;49.042;9.028;2022-08-21T12:30:05;10.50;;;5.20;;
3789;SDS011;1910;49.042;9.028;2022-08-21T12:32:45;8.57;;;5.80;;
3789;SDS011;1910;49.042;9.028;2022-08-21T12:35:21;5.23;;;4.83;;
3789;SDS011;1910;49.042;9.028;2022-08-21T12:37:59;8.10;;;5.17;;
3789;SDS011;1910;49.042;9.028;2022-08-21T12:40:30;8.60;;;5.47;;
3789;SDS011;1910;49.042;9.028;2022-08-21T12:43:11;16.83;;;5.10;;
3789;SDS011;1910;49.042;9.028;2022-08-21T12:45:42;6.90;;;4.57;;
3789;SDS011;1910;49.042;9.028;2022-08-21T12:53:49;5.87;;;5.23;;
3789;SDS011;1910;49.042;9.028;2022-08-21T12:56:23;8.20;;;6.20;;
3789;SDS011;1910;49.042;9.028;2022-08-21T12:58:56;8.90;;;5.23;;
3789;SDS011;1910;49.042;9.028;2022-08-21T13:01:38;6.53;;;4.83;;
3789;SDS011;1910;49.042;9.028;2022-08-21T13:04:12;9.93;;;5.90;;
3789;SDS011;1910;49.042;9.028;2022-08-21T13:06:43;4.53;;;4.13;;
3789;SDS011;1910;49.042;9.028;2022-08-21T13:09:11;7.17;;;5.23;;
3789;SDS011;1910;49.042;9.028;2022-08-21T13:11:40;9.70;;;4.80;;
3789;SDS011;1910;49.042;9.028;2022-08-21T13:14:10;7.97;;;4.90;;
3789;SDS011;1910;49.042;9.028;2022-08-21T13:16:48;7.23;;;5.23;;
3789;SDS011;1910;49.042;9.028;2022-08-21T13:19:19;5.67;;;5.07;;
3789;SDS011;1910;49.042;9.028;2022-08-21T13:21:45;6.80;;;4.50;;
3789;SDS011;1910;49.042;9.028;2022-08-21T13:24:19;7.17;;;5.20;;
3789;SDS011;1910;49.042;9.028;2022-08-21T13:26:46;8.73;;;5.90;;
3789;SDS011;1910;49.042;9.028;2022-08-21T13:29:14;6.67;;;5.03;;
3789;SDS011;1910;49.042;9.028;2022-08-21T13:31:46;7.10;;;5.80;;
3789;SDS011;1910;49.042;9.028;2022-08-21T13:34:23;7.13;;;5.70;;
3789;SDS011;1910;49.042;9.028;2022-08-21T13:36:51;7.97;;;6.10;;
3789;SDS011;1910;49.042;9.028;2022-08-21T13:39:20;6.33;;;5.00;;
3789;SDS011;1910;49.042;9.028;2022-08-21T13:41:48;7.97;;;4.50;;
3789;SDS011;1910;49.042;9.028;2022-08-21T13:44:18;11.03;;;5.40;;
3789;SDS011;1910;49.042;9.028;2022-08-21T13:46:48;6.43;;;5.37;;
3789;SDS011;1910;49.042;9.028;2022-08-21T13:49:16;9.27;;;4.90;;
3789;SDS011;1910;49.042;9.028;2022-08-21T13:51:44;6.63;;;4.10;;
3789;SDS011;1910;49.042;9.028;2022-08-21T13:54:14;9.73;;;4.80;;
3789;SDS011;1910;49.042;9.028;2022-08-21T13:56:44;13.03;;;5.17;;
3789;SDS011;1910;49.042;9.028;2022-08-21T13:59:11;10.10;;;5.17;;
3789;SDS011;1910;49.042;9.028;2022-08-21T14:02:01;5.17;;;4.73;;
3789;SDS011;1910;49.042;9.028;2022-08-21T14:04:44;4.60;;;4.20;;
3789;SDS011;1910;49.042;9.028;2022-08-21T14:07:32;7.60;;;5.20;;
3789;SDS011;1910;49.042;9.028;2022-08-21T14:10:11;6.53;;;4.93;;
3789;SDS011;1910;49.042;9.028;2022-08-21T14:12:45;7.33;;;4.50;;
3789;SDS011;1910;49.042;9.028;2022-08-21T14:15:16;5.70;;;4.73;;
3789;SDS011;1910;49.042;9.028;2022-08-21T14:17:44;7.83;;;4.90;;
3789;SDS011;1910;49.042;9.028;2022-08-21T14:20:12;5.57;;;4.57;;
3789;SDS011;1910;49.042;9.028;2022-08-21T14:22:51;7.97;;;4.73;;
3789;SDS011;1910;49.042;9.028;2022-08-21T14:27:44;14.03;;;5.30;;
3789;SDS011;1910;49.042;9.028;2022-08-21T14:30:17;5.30;;;4.80;;
3789;SDS011;1910;49.042;9.028;2022-08-21T14:32:54;8.37;;;4.97;;
3789;SDS011;1910;49.042;9.028;2022-08-21T14:35:20;5.53;;;5.03;;
3789;SDS011;1910;49.042;9.028;2022-08-21T14:37:47;5.10;;;4.60;;
3789;SDS011;1910;49.042;9.028;2022-08-21T14:40:15;5.83;;;4.97;;
3789;SDS011;1910;49.042;9.028;2022-08-21T14:42:42;11.60;;;4.97;;
3789;SDS011;1910;49.042;9.028;2022-08-21T14:47:41;10.83;;;4.50;;
3789;SDS011;1910;49.042;9.028;2022-08-21T14:50:10;7.83;;;4.90;;
3789;SDS011;1910;49.042;9.028;2022-08-21T14:52:37;5.33;;;4.83;;
3789;SDS011;1910;49.042;9.028;2022-08-21T14:55:04;9.10;;;5.03;;
3789;SDS011;1910;49.042;9.028;2022-08-21T14:57:32;4.90;;;4.47;;
3789;SDS011;1910;49.042;9.028;2022-08-21T14:59:59;6.30;;;5.30;;
3789;SDS011;1910;49.042;9.028;2022-08-21T15:02:25;6.53;;;5.93;;
3789;SDS011;1910;49.042;9.028;2022-08-21T15:04:51;8.57;;;5.83;;
3789;SDS011;1910;49.042;9.028;2022-08-21T15:07:17;9.37;;;5.63;;
3789;SDS011;1910;49.042;9.028;2022-08-21T15:09:42;6.60;;;4.37;;
3789;SDS011;1910;49.042;9.028;2022-08-21T15:12:08;6.87;;;4.87;;
3789;SDS011;1910;49.042;9.028;2022-08-21T15:14:36;6.70;;;4.70;;
3789;SDS011;1910;49.042;9.028;2022-08-21T15:17:05;8.07;;;5.03;;
3789;SDS011;1910;49.042;9.028;2022-08-21T15:19:31;5.30;;;4.80;;
3789;SDS011;1910;49.042;9.028;2022-08-21T15:21:58;7.97;;;5.03;;
3789;SDS011;1910;49.042;9.028;2022-08-21T15:24:24;6.17;;;4.97;;
3789;SDS011;1910;49.042;9.028;2022-08-21T15:26:50;6.73;;;4.53;;
3789;SDS011;1910;49.042;9.028;2022-08-21T15:29:18;8.73;;;4.83;;
3789;SDS011;1910;49.042;9.028;2022-08-21T15:31:53;5.33;;;4.80;;
3789;SDS011;1910;49.042;9.028;2022-08-21T15:34:24;4.67;;;4.27;;
3789;SDS011;1910;49.042;9.028;2022-08-21T15:36:52;5.60;;;4.97;;
3789;SDS011;1910;49.042;9.028;2022-08-21T15:39:18;6.03;;;4.50;;
3789;SDS011;1910;49.042;9.028;2022-08-21T15:41:43;7.87;;;4.80;;
3789;SDS011;1910;49.042;9.028;2022-08-21T15:44:10;7.47;;;4.97;;
3789;SDS011;1910;49.042;9.028;2022-08-21T15:46:38;6.87;;;6.03;;
3789;SDS011;1910;49.042;9.028;2022-08-21T15:49:04;5.90;;;5.30;;
3789;SDS011;1910;49.042;9.028;2022-08-21T15:51:30;7.30;;;4.33;;
3789;SDS011;1910;49.042;9.028;2022-08-21T15:53:57;7.57;;;5.27;;
3789;SDS011;1910;49.042;9.028;2022-08-21T15:56:24;5.10;;;4.60;;
3789;SDS011;1910;49.042;9.028;2022-08-21T15:59:18;6.00;;;4.60;;
3789;SDS011;1910;49.042;9.028;2022-08-21T16:01:46;5.73;;;5.00;;
3789;SDS011;1910;49.042;9.028;2022-08-21T16:04:19;5.40;;;4.90;;
3789;SDS011;1910;49.042;9.028;2022-08-21T16:06:51;6.10;;;4.20;;
3789;SDS011;1910;49.042;9.028;2022-08-21T16:09:17;5.10;;;4.70;;
3789;SDS011;1910;49.042;9.028;2022-08-21T16:11:43;6.83;;;5.30;;
3789;SDS011;1910;49.042;9.028;2022-08-21T16:14:10;5.03;;;4.57;;
3789;SDS011;1910;49.042;9.028;2022-08-21T16:16:39;4.53;;;4.20;;
3789;SDS011;1910;49.042;9.028;2022-08-21T16:19:05;7.23;;;4.97;;
3789;SDS011;1910;49.042;9.028;2022-08-21T16:21:32;6.28;;;4.90;;
3789;SDS011;1910;49.042;9.028;2022-08-21T16:23:58;4.57;;;4.18;;
3789;SDS011;1910;49.042;9.028;2022-08-21T16:26:24;5.67;;;4.60;;
3789;SDS011;1910;49.042;9.028;2022-08-21T16:28:51;6.67;;;4.83;;
3789;SDS011;1910;49.042;9.028;2022-08-21T16:31:19;5.10;;;4.30;;
3789;SDS011;1910;49.042;9.028;2022-08-21T16:33:50;7.27;;;5.13;;
3789;SDS011;1910;49.042;9.028;2022-08-21T16:36:18;4.83;;;4.10;;
3789;SDS011;1910;49.042;9.028;2022-08-21T16:38:44;5.83;;;4.23;;
3789;SDS011;1910;49.042;9.028;2022-08-21T16:41:13;5.10;;;4.70;;